Time;durP1;ratioP1;P1;durP2;ratioP2;P2;SDS_P1;SDS_P2;PMS_P1;PMS_P2;Temp;Humidity;BMP_temperature;BMP_pressure;BME280_temperature;BME280_humidity;BME280_pressure;Samples;Min_cycle;Max_cycle;Signal;HPM_P1;HPM_P2
2024/03/13 00:00:10;;;;;;;8.02;1.35;;;;;;;11.37;100.00;99473.66;5010474;28;20054;-63
2024/03/13 00:02:38;;;;;;;6.13;1.52;;;;;;;11.38;100.00;99485.53;5021187;28;20046;-63
2024/03/13 00:05:07;;;;;;;5.50;1.55;;;;;;;11.37;100.00;99476.44;4994333;28;20062;-63
2024/03/13 00:07:35;;;;;;;6.47;1.58;;;;;;;11.37;100.00;99495.03;5008105;28;20046;-63
2024/03/13 00:10:04;;;;;;;5.75;1.40;;;;;;;11.37;100.00;99483.94;5010977;28;20057;-63
2024/03/13 00:12:43;;;;;;;4.20;1.40;;;;;;;11.39;100.00;99476.84;4993314;28;20058;-63
2024/03/13 00:15:11;;;;;;;8.77;1.20;;;;;;;11.39;100.00;99471.28;5015487;28;20046;-63
2024/03/13 00:17:38;;;;;;;5.80;1.30;;;;;;;11.42;100.00;99462.22;4993521;28;20382;-63
2024/03/13 00:20:11;;;;;;;3.60;1.75;;;;;;;11.43;100.00;99468.56;5010704;28;20065;-63
2024/03/13 00:22:40;;;;;;;3.97;1.30;;;;;;;11.42;100.00;99453.91;5014090;28;20050;-63
2024/03/13 00:25:11;;;;;;;4.35;1.38;;;;;;;11.42;100.00;99469.72;4993333;28;20439;-63
2024/03/13 00:27:41;;;;;;;5.47;1.00;;;;;;;11.42;100.00;99456.69;5000404;28;20058;-63
2024/03/13 00:30:10;;;;;;;6.18;1.33;;;;;;;11.42;100.00;99453.91;5014745;28;20591;-63
2024/03/13 00:32:37;;;;;;;9.70;1.48;;;;;;;11.44;100.00;99445.19;5005263;28;20042;-63
2024/03/13 00:35:06;;;;;;;5.55;3.00;;;;;;;11.43;100.00;99444.44;5002135;28;20045;-63
2024/03/13 00:37:34;;;;;;;7.38;0.95;;;;;;;11.45;100.00;99446.81;5000450;28;20045;-63
2024/03/13 00:40:03;;;;;;;5.57;1.23;;;;;;;11.45;100.00;99444.03;5025648;28;20283;-63
2024/03/13 00:42:31;;;;;;;12.95;1.55;;;;;;;11.45;100.00;99444.84;5008922;28;20054;-63
2024/03/13 00:44:58;;;;;;;3.17;2.30;;;;;;;11.45;100.00;99425.44;5005423;28;20050;-63
2024/03/13 00:47:26;;;;;;;10.00;1.83;;;;;;;11.46;100.00;99431.78;5004492;28;20056;-63
2024/03/13 00:49:53;;;;;;;7.57;2.90;;;;;;;11.44;100.00;99423.84;4991798;28;20071;-63
2024/03/13 00:52:21;;;;;;;11.68;2.25;;;;;;;11.43;100.00;99427.00;5023318;28;20068;-63
2024/03/13 00:54:50;;;;;;;13.23;1.67;;;;;;;11.43;100.00;99424.22;5008147;28;20042;-63
2024/03/13 00:57:18;;;;;;;7.65;2.17;;;;;;;11.41;100.00;99412.75;5008674;28;20179;-63
2024/03/13 00:59:46;;;;;;;6.28;1.52;;;;;;;11.39;100.00;99404.78;5021601;28;20508;-63
2024/03/13 01:02:14;;;;;;;13.38;2.45;;;;;;;11.37;100.00;99401.63;5008028;28;20053;-63
2024/03/13 01:04:44;;;;;;;6.85;1.55;;;;;;;11.36;100.00;99400.00;5009608;28;20050;-63
2024/03/13 01:07:12;;;;;;;13.07;2.40;;;;;;;11.35;100.00;99401.22;5015631;28;20045;-63
2024/03/13 01:09:40;;;;;;;11.65;2.70;;;;;;;11.36;100.00;99402.78;5020040;28;20054;-63
2024/03/13 01:12:08;;;;;;;12.25;2.55;;;;;;;11.36;100.00;99396.44;5026534;28;20419;-63
2024/03/13 01:14:35;;;;;;;5.13;1.40;;;;;;;11.37;100.00;99400.81;5024416;28;20045;-63
2024/03/13 01:17:03;;;;;;;9.70;1.67;;;;;;;11.38;100.00;99396.88;5025712;28;20526;-63
2024/03/13 01:19:34;;;;;;;7.50;2.38;;;;;;;11.40;100.00;99402.81;5005389;28;20613;-63
2024/03/13 01:22:07;;;;;;;12.38;2.55;;;;;;;11.40;100.00;99389.78;5016332;28;20052;-63
2024/03/13 01:24:36;;;;;;;12.15;2.65;;;;;;;11.43;100.00;99397.31;5001587;28;20057;-63
2024/03/13 01:27:03;;;;;;;13.45;1.73;;;;;;;11.43;100.00;99394.53;4997762;28;20057;-63
2024/03/13 01:29:30;;;;;;;10.90;1.55;;;;;;;11.45;100.00;99383.88;5020251;28;20037;-62
2024/03/13 01:31:58;;;;;;;9.52;2.30;;;;;;;11.45;100.00;99394.16;5010148;28;20049;-63
2024/03/13 01:34:26;;;;;;;7.53;1.92;;;;;;;11.46;100.00;99382.66;5019745;28;20041;-62
2024/03/13 01:39:40;;;;;;;16.20;2.55;;;;;;;11.47;100.00;99403.66;5023004;28;20065;-63
2024/03/13 01:56:26;;;;;;;9.23;1.73;;;;;;;11.45;100.00;99380.28;4980125;28;20046;-63
2024/03/13 01:59:20;;;;;;;13.75;3.13;;;;;;;11.45;100.00;99375.56;5014841;28;20041;-62
2024/03/13 02:04:35;;;;;;;9.98;1.92;;;;;;;11.46;100.00;99368.81;5008849;28;20377;-63
2024/03/13 02:07:03;;;;;;;11.98;3.17;;;;;;;11.45;100.00;99370.00;5007270;28;20478;-63
2024/03/13 02:09:31;;;;;;;14.00;3.35;;;;;;;11.45;100.00;99381.09;5017182;28;20054;-63
2024/03/13 02:11:58;;;;;;;7.53;2.83;;;;;;;11.44;100.00;99407.22;5008136;28;20053;-63
2024/03/13 02:14:28;;;;;;;11.43;2.33;;;;;;;11.44;100.00;99373.94;5002457;28;20057;-62
2024/03/13 02:16:55;;;;;;;15.82;2.65;;;;;;;11.44;100.00;99375.91;4986221;28;20842;-63
2024/03/13 02:19:24;;;;;;;11.90;2.30;;;;;;;11.40;100.00;99372.34;5017621;28;20045;-64
2024/03/13 02:21:59;;;;;;;13.75;2.22;;;;;;;11.38;100.00;99364.41;5015998;28;20515;-62
2024/03/13 02:24:27;;;;;;;14.07;4.22;;;;;;;11.37;100.00;99353.72;5017741;28;20072;-62
2024/03/13 02:26:54;;;;;;;8.30;1.60;;;;;;;11.33;100.00;99356.44;5012447;28;20042;-62
2024/03/13 02:29:22;;;;;;;12.20;2.08;;;;;;;11.32;100.00;99357.63;5014820;28;20125;-61
2024/03/13 02:31:49;;;;;;;10.32;2.47;;;;;;;11.29;100.00;99360.38;5010619;28;20046;-61
2024/03/13 02:34:20;;;;;;;6.10;1.45;;;;;;;11.24;100.00;99353.22;5015080;28;20057;-61
2024/03/13 02:36:49;;;;;;;6.05;0.90;;;;;;;11.21;100.00;99340.13;5011743;28;20045;-62
2024/03/13 02:39:18;;;;;;;4.00;0.90;;;;;;;11.18;100.00;99356.72;5020465;28;20331;-61
2024/03/13 02:41:46;;;;;;;2.85;0.88;;;;;;;11.16;100.00;99361.84;4995799;28;20061;-61
2024/03/13 02:44:13;;;;;;;3.20;0.90;;;;;;;11.12;100.00;99339.63;5023319;28;20397;-60
2024/03/13 02:46:43;;;;;;;7.38;0.90;;;;;;;11.10;100.00;99336.47;5009104;28;20054;-60
2024/03/13 02:49:11;;;;;;;3.72;0.57;;;;;;;11.09;100.00;99332.13;4995099;28;20052;-59
2024/03/13 02:51:38;;;;;;;4.65;0.77;;;;;;;11.09;100.00;99334.88;4995728;28;20053;-60
2024/03/13 02:54:06;;;;;;;3.05;0.52;;;;;;;11.07;100.00;99309.53;5016751;28;20052;-60
2024/03/13 02:56:33;;;;;;;1.52;0.38;;;;;;;11.09;100.00;99334.88;4996445;28;20060;-61
2024/03/13 02:59:00;;;;;;;1.13;0.50;;;;;;;11.11;100.00;99313.13;5019688;28;20047;-61
2024/03/13 03:01:28;;;;;;;4.30;0.40;;;;;;;11.13;100.00;99324.63;5099559;22;20067;-61
2024/03/13 03:03:56;;;;;;;0.52;0.20;;;;;;;11.14;100.00;99334.53;5048616;28;20051;-61
2024/03/13 03:06:23;;;;;;;2.17;0.57;;;;;;;11.15;100.00;99313.94;5053344;28;20390;-61
2024/03/13 03:08:51;;;;;;;4.30;0.65;;;;;;;11.16;100.00;99318.31;5056445;28;20052;-61
2024/03/13 03:11:19;;;;;;;2.42;0.28;;;;;;;11.16;100.00;99317.53;5042329;28;20048;-62
2024/03/13 03:13:46;;;;;;;0.80;0.30;;;;;;;11.16;100.00;99323.88;5061710;28;20053;-61
2024/03/13 03:16:14;;;;;;;3.05;1.05;;;;;;;11.18;100.00;99329.81;5058246;28;20675;-62
2024/03/13 03:18:43;;;;;;;3.42;1.17;;;;;;;11.18;100.00;99327.03;5066385;28;20052;-61
2024/03/13 03:21:11;;;;;;;0.73;0.32;;;;;;;11.17;100.00;99333.78;5058313;28;20049;-62
2024/03/13 03:23:39;;;;;;;3.20;0.50;;;;;;;11.17;100.00;99313.59;5040197;28;20498;-62
2024/03/13 03:26:07;;;;;;;2.42;0.43;;;;;;;11.17;100.00;99295.00;5057245;28;20071;-62
2024/03/13 03:28:35;;;;;;;1.17;0.32;;;;;;;11.16;100.00;99287.06;5064863;28;20053;-62
2024/03/13 03:31:04;;;;;;;1.40;0.60;;;;;;;11.16;100.00;99296.16;5030387;28;20060;-62
2024/03/13 03:33:32;;;;;;;0.80;0.22;;;;;;;11.16;100.00;99300.91;5039136;28;20048;-62
2024/03/13 03:35:59;;;;;;;3.17;0.30;;;;;;;11.16;100.00;99287.06;5049414;28;20053;-62
2024/03/13 03:38:28;;;;;;;0.88;0.40;;;;;;;11.17;100.00;99297.75;5058458;28;20045;-62
2024/03/13 03:40:55;;;;;;;3.05;0.40;;;;;;;11.17;100.00;99297.75;5066841;28;20045;-62
2024/03/13 03:43:23;;;;;;;0.88;0.43;;;;;;;11.17;100.00;99297.75;5038132;28;20045;-62
2024/03/13 03:45:50;;;;;;;2.10;0.30;;;;;;;11.19;100.00;99289.84;5066715;28;20059;-62
2024/03/13 03:48:18;;;;;;;1.80;0.35;;;;;;;11.20;100.00;99290.66;5062724;28;20044;-62
2024/03/13 03:50:46;;;;;;;0.80;0.30;;;;;;;11.19;100.00;99292.63;5065720;28;20041;-62
2024/03/13 03:53:13;;;;;;;1.48;0.30;;;;;;;11.20;100.00;99291.44;5065288;28;20048;-62
2024/03/13 03:55:40;;;;;;;1.15;0.40;;;;;;;11.22;100.00;99280.78;5066376;28;20708;-62
2024/03/13 03:58:08;;;;;;;1.98;0.32;;;;;;;11.22;100.00;99289.09;5058737;28;20041;-62
2024/03/13 04:00:35;;;;;;;0.30;0.30;;;;;;;11.21;100.00;99293.03;5065694;28;20111;-62
2024/03/13 04:03:04;;;;;;;0.68;0.10;;;;;;;11.20;100.00;99285.88;5041125;28;20052;-62
2024/03/13 04:05:32;;;;;;;2.13;0.20;;;;;;;11.20;100.00;99290.66;5049878;28;20486;-62
2024/03/13 04:07:59;;;;;;;2.83;0.52;;;;;;;11.20;100.00;99288.66;5067580;28;20056;-62
2024/03/13 04:10:26;;;;;;;1.33;0.35;;;;;;;11.19;100.00;99277.97;5047980;28;20048;-62
2024/03/13 04:12:54;;;;;;;1.40;0.40;;;;;;;11.19;100.00;99276.00;5065561;28;20071;-62
2024/03/13 04:15:23;;;;;;;0.57;0.30;;;;;;;11.18;100.00;99285.50;5064408;28;20051;-62
2024/03/13 04:17:50;;;;;;;3.03;0.38;;;;;;;11.18;100.00;99293.78;5068512;28;20075;-62
2024/03/13 04:20:20;;;;;;;2.33;0.40;;;;;;;11.17;100.00;99272.84;5056591;28;20067;-62
2024/03/13 04:22:49;;;;;;;4.20;0.40;;;;;;;11.16;100.00;99293.41;5066672;28;20044;-62
2024/03/13 04:25:18;;;;;;;3.05;0.40;;;;;;;11.16;100.00;99285.09;5036537;28;20056;-62
2024/03/13 04:27:47;;;;;;;1.77;0.32;;;;;;;11.16;100.00;99282.31;5056411;28;20057;-62
2024/03/13 04:30:15;;;;;;;0.25;0.25;;;;;;;11.16;100.00;99290.63;5065706;28;20049;-62
2024/03/13 04:32:42;;;;;;;4.00;0.90;;;;;;;11.15;100.00;99283.47;5042326;28;20051;-62
2024/03/13 04:35:10;;;;;;;1.52;0.20;;;;;;;11.17;100.00;99285.88;5051704;28;20490;-62
2024/03/13 04:37:39;;;;;;;1.15;0.30;;;;;;;11.18;100.00;99281.91;5050546;28;20513;-62
2024/03/13 04:40:10;;;;;;;1.15;0.35;;;;;;;11.16;100.00;99274.00;5059857;28;20049;-62
2024/03/13 04:42:37;;;;;;;0.82;0.13;;;;;;;11.14;100.00;99276.38;5049663;28;20308;-62
2024/03/13 04:45:06;;;;;;;2.45;0.47;;;;;;;11.14;100.00;99284.69;5068867;28;20521;-62
2024/03/13 04:47:35;;;;;;;3.50;0.40;;;;;;;11.14;100.00;99276.38;5044632;28;20673;-61
2024/03/13 04:50:08;;;;;;;1.65;0.38;;;;;;;11.14;100.00;99287.44;5058245;28;20052;-61
2024/03/13 04:52:36;;;;;;;0.95;0.45;;;;;;;11.14;100.00;99281.91;5067618;28;20052;-63
2024/03/13 04:55:05;;;;;;;1.17;0.30;;;;;;;11.13;100.00;99274.78;5044170;28;20048;-62
2024/03/13 04:57:33;;;;;;;2.47;0.98;;;;;;;11.15;100.00;99280.72;5067160;28;20417;-62
2024/03/13 05:00:01;;;;;;;2.83;0.52;;;;;;;11.14;100.00;99270.03;5066363;28;20068;-62
2024/03/13 05:02:29;;;;;;;1.90;0.40;;;;;;;11.14;100.00;99268.06;5048608;28;20055;-62
2024/03/13 05:04:57;;;;;;;6.80;1.23;;;;;;;11.14;100.00;99270.84;5024153;28;20044;-62
2024/03/13 05:07:25;;;;;;;2.08;0.52;;;;;;;11.14;100.00;99261.72;5040604;28;20414;-62
2024/03/13 05:09:53;;;;;;;3.28;0.52;;;;;;;11.14;100.00;99270.03;5045922;28;20049;-62
2024/03/13 05:12:21;;;;;;;1.77;0.43;;;;;;;11.14;100.00;99258.94;5029693;28;20502;-62
2024/03/13 05:14:48;;;;;;;4.35;0.40;;;;;;;11.13;100.00;99260.91;5043132;28;20411;-62
2024/03/13 05:17:15;;;;;;;2.67;0.30;;;;;;;11.12;100.00;99267.63;5035068;28;20048;-62
2024/03/13 05:19:43;;;;;;;3.63;0.60;;;;;;;11.11;100.00;99262.47;5050656;28;20410;-62
2024/03/13 05:22:11;;;;;;;3.70;0.65;;;;;;;11.11;100.00;99277.13;5043873;28;20055;-62
2024/03/13 05:24:38;;;;;;;4.32;0.50;;;;;;;11.13;100.00;99280.31;5049831;28;20052;-62
2024/03/13 05:27:05;;;;;;;3.80;0.50;;;;;;;11.13;100.00;99280.31;5027031;28;20051;-62
2024/03/13 05:29:33;;;;;;;3.35;0.30;;;;;;;11.14;100.00;99289.41;5037953;28;20503;-62
2024/03/13 05:32:07;;;;;;;4.10;0.40;;;;;;;11.11;100.00;99288.22;5049570;28;20072;-62
2024/03/13 05:34:34;;;;;;;3.25;1.08;;;;;;;11.09;100.00;99285.03;5049511;28;20495;-62
2024/03/13 05:37:02;;;;;;;0.32;0.25;;;;;;;11.08;100.00;99285.41;5037061;28;20052;-62
2024/03/13 05:39:29;;;;;;;0.75;0.30;;;;;;;11.06;100.00;99288.56;5032000;28;20386;-62
2024/03/13 05:41:57;;;;;;;1.38;0.20;;;;;;;11.04;100.00;99282.59;5045461;28;20056;-62
2024/03/13 05:44:24;;;;;;;1.67;0.38;;;;;;;11.03;100.00;99281.03;5042931;28;20136;-63
2024/03/13 05:46:53;;;;;;;0.68;0.40;;;;;;;11.03;100.00;99275.50;5049047;28;20041;-63
2024/03/13 05:49:20;;;;;;;1.55;0.30;;;;;;;11.02;100.00;99279.44;5047397;28;20056;-63
2024/03/13 05:51:47;;;;;;;0.98;0.40;;;;;;;11.01;100.00;99275.84;5047960;28;20052;-62
2024/03/13 05:54:15;;;;;;;3.28;0.52;;;;;;;11.00;100.00;99271.50;5044084;28;20048;-63
2024/03/13 05:56:43;;;;;;;0.65;0.20;;;;;;;10.98;100.00;99278.63;5035364;28;20053;-62
2024/03/13 05:59:10;;;;;;;1.50;0.30;;;;;;;10.97;100.00;99277.00;5028558;28;20045;-62
2024/03/13 06:01:38;;;;;;;0.70;0.22;;;;;;;10.95;100.00;99262.75;5049484;28;20056;-62
2024/03/13 06:04:05;;;;;;;3.42;0.50;;;;;;;10.95;100.00;99274.63;5065285;28;20048;-62
2024/03/13 06:06:33;;;;;;;2.03;0.20;;;;;;;10.96;100.00;99265.13;5045209;28;20052;-63
2024/03/13 06:09:00;;;;;;;2.15;0.30;;;;;;;10.97;100.00;99268.72;5060643;28;20586;-63
2024/03/13 06:11:28;;;;;;;0.30;0.20;;;;;;;10.98;100.00;99270.31;5050957;28;20063;-62
2024/03/13 06:13:55;;;;;;;0.95;0.40;;;;;;;11.01;100.00;99266.78;5065050;28;20427;-63
2024/03/13 06:16:22;;;;;;;1.42;0.28;;;;;;;11.01;100.00;99258.47;5060911;28;20049;-63
2024/03/13 06:18:50;;;;;;;2.05;0.20;;;;;;;11.02;100.00;99273.88;5062372;28;20486;-63
2024/03/13 06:21:19;;;;;;;1.75;0.28;;;;;;;11.03;100.00;99267.19;5069323;28;20040;-63
2024/03/13 06:23:52;;;;;;;3.58;0.68;;;;;;;11.03;100.00;99258.88;5064936;28;20053;-63
2024/03/13 06:26:21;;;;;;;3.63;0.30;;;;;;;11.02;100.00;99269.16;5036003;28;20056;-63
2024/03/13 06:31:42;;;;;;;0.25;0.10;;;;;;;11.01;100.00;99248.16;5061681;28;20053;-63
2024/03/13 06:34:10;;;;;;;5.15;0.45;;;;;;;11.00;100.00;99267.94;5042947;28;20057;-63
2024/03/13 06:36:39;;;;;;;1.50;0.30;;;;;;;11.00;100.00;99270.72;5036154;28;20526;-63
2024/03/13 06:39:09;;;;;;;1.85;0.30;;;;;;;10.99;100.00;99269.09;5059259;28;20056;-63
2024/03/13 06:41:37;;;;;;;2.45;0.20;;;;;;;10.99;100.00;99275.44;5068410;28;20049;-63
2024/03/13 06:44:05;;;;;;;1.25;0.32;;;;;;;11.00;100.00;99273.47;5064823;28;20055;-62
2024/03/13 06:46:33;;;;;;;3.15;0.50;;;;;;;11.00;100.00;99265.19;5054431;28;20404;-63
2024/03/13 06:49:00;;;;;;;1.05;0.35;;;;;;;11.02;100.00;99273.88;5049431;28;20408;-63
2024/03/13 06:51:28;;;;;;;1.35;0.43;;;;;;;11.02;100.00;99265.56;5048585;28;20049;-63
2024/03/13 06:53:55;;;;;;;3.17;0.50;;;;;;;11.04;100.00;99262.44;5061227;28;20379;-63
2024/03/13 06:56:23;;;;;;;0.65;0.35;;;;;;;11.06;100.00;99279.47;5037441;28;20537;-63
2024/03/13 06:58:50;;;;;;;6.85;0.82;;;;;;;11.09;100.00;99251.00;5055091;28;20053;-62
2024/03/13 07:01:19;;;;;;;1.63;0.52;;;;;;;11.10;100.00;99263.66;5039480;28;20076;-64
2024/03/13 07:03:46;;;;;;;4.15;0.47;;;;;;;11.12;100.00;99267.63;5067386;28;20498;-62
2024/03/13 07:06:14;;;;;;;1.15;1.05;;;;;;;11.14;100.00;99281.91;5068304;28;20044;-63
2024/03/13 07:08:42;;;;;;;1.50;0.30;;;;;;;11.16;100.00;99274.00;5066982;28;20064;-63
2024/03/13 07:11:11;;;;;;;1.33;0.10;;;;;;;11.17;100.00;99269.25;5060562;28;20414;-63
2024/03/13 07:13:39;;;;;;;1.38;0.30;;;;;;;11.18;100.00;99263.31;5068924;28;20569;-63
2024/03/13 07:16:06;;;;;;;2.13;0.43;;;;;;;11.19;100.00;99278.78;5048904;28;20056;-63
2024/03/13 07:18:34;;;;;;;1.05;0.28;;;;;;;11.21;100.00;99268.09;5063820;28;20075;-63
2024/03/13 07:21:02;;;;;;;1.23;0.30;;;;;;;11.24;100.00;99270.09;5067551;28;20052;-64
2024/03/13 07:23:29;;;;;;;0.73;0.73;;;;;;;11.27;100.00;99279.63;5066050;28;20048;-63
2024/03/13 07:25:57;;;;;;;1.90;0.30;;;;;;;11.27;100.00;99285.97;5051128;28;20571;-63
2024/03/13 07:28:24;;;;;;;0.82;0.25;;;;;;;11.29;100.00;99289.13;5063506;28;20045;-62
2024/03/13 07:30:51;;;;;;;0.30;0.30;;;;;;;11.30;100.00;99290.75;5065201;28;20056;-63
2024/03/13 07:33:19;;;;;;;0.30;0.20;;;;;;;11.34;100.00;99286.00;5063948;28;20524;-62
2024/03/13 07:35:46;;;;;;;2.67;0.32;;;;;;;11.34;100.00;99285.19;5046029;28;20057;-63
2024/03/13 07:38:14;;;;;;;0.98;0.17;;;;;;;11.35;100.00;99279.28;5033282;28;20053;-63
2024/03/13 07:40:41;;;;;;;0.75;0.40;;;;;;;11.36;100.00;99291.94;5047682;28;20044;-62
2024/03/13 07:43:09;;;;;;;0.75;0.30;;;;;;;11.36;100.00;99293.91;5054949;28;20040;-62
2024/03/13 07:45:37;;;;;;;1.77;0.40;;;;;;;11.36;100.00;99300.25;5073087;28;20494;-61
2024/03/13 07:48:07;;;;;;;2.33;0.52;;;;;;;11.37;100.00;99292.75;5052020;28;20056;-61
2024/03/13 07:50:38;;;;;;;5.72;0.40;;;;;;;11.37;100.00;99292.75;5047697;28;20510;-61
2024/03/13 07:53:06;;;;;;;4.07;0.50;;;;;;;11.40;100.00;99289.22;5054643;28;20068;-60
2024/03/13 07:55:34;;;;;;;2.03;0.50;;;;;;;11.41;100.00;99302.66;5052490;28;20040;-63
2024/03/13 07:58:03;;;;;;;2.08;0.40;;;;;;;11.44;100.00;99295.56;5055140;28;20466;-61
2024/03/13 08:00:35;;;;;;;2.03;0.30;;;;;;;11.45;100.00;99309.03;5055611;28;20051;-61
2024/03/13 08:03:03;;;;;;;0.40;0.30;;;;;;;11.47;100.00;99312.22;5041937;28;20049;-61
2024/03/13 08:05:32;;;;;;;1.70;0.30;;;;;;;11.49;100.00;99315.38;5071766;28;20045;-61
2024/03/13 08:07:59;;;;;;;0.85;0.30;;;;;;;11.52;100.00;99320.16;5054158;28;20080;-61
2024/03/13 08:10:44;;;;;;;3.05;0.30;;;;;;;11.55;100.00;99319.41;5059495;28;20036;-61
2024/03/13 08:13:31;;;;;;;0.80;0.60;;;;;;;11.60;100.00;99332.09;5047596;28;20529;-61
2024/03/13 08:16:15;;;;;;;0.60;0.40;;;;;;;11.63;100.00;99329.34;5059520;28;20024;-61
2024/03/13 08:19:00;;;;;;;4.00;0.60;;;;;;;11.67;100.00;99339.66;5066808;28;20037;-62
2024/03/13 08:21:45;;;;;;;1.52;0.40;;;;;;;11.70;100.00;99336.16;5060639;28;20041;-61
2024/03/13 08:24:29;;;;;;;0.40;0.20;;;;;;;11.72;100.00;99336.56;5072050;28;20040;-61
2024/03/13 08:27:14;;;;;;;2.72;0.30;;;;;;;11.74;100.00;99348.84;5061858;28;20537;-61
2024/03/13 08:29:59;;;;;;;1.50;0.30;;;;;;;11.77;100.00;99348.09;5062883;28;20041;-61
2024/03/13 08:32:51;;;;;;;1.20;1.08;;;;;;;11.78;100.00;99341.34;5060067;28;20043;-61
2024/03/13 08:35:38;;;;;;;1.83;0.47;;;;;;;11.79;100.00;99340.16;5037108;28;20494;-61
2024/03/13 08:38:23;;;;;;;1.02;0.77;;;;;;;11.80;100.00;99343.75;5062128;28;20025;-61
2024/03/13 08:41:07;;;;;;;1.52;0.30;;;;;;;11.79;100.00;99344.91;5068831;28;20040;-60
2024/03/13 08:43:52;;;;;;;1.10;0.20;;;;;;;11.78;100.00;99371.84;5053375;28;20053;-59
2024/03/13 08:46:37;;;;;;;2.47;0.32;;;;;;;11.78;100.00;99382.16;5061575;28;20036;-58
2024/03/13 08:49:22;;;;;;;1.33;0.80;;;;;;;11.78;100.00;99382.16;5050900;28;20052;-57
2024/03/13 08:52:06;;;;;;;2.03;0.60;;;;;;;11.76;100.00;99379.75;5036611;28;20394;-57
2024/03/13 08:54:52;;;;;;;0.13;0.10;;;;;;;11.66;100.00;99391.53;5069014;28;20417;-60
2024/03/13 08:57:37;;;;;;;0.20;0.20;;;;;;;11.52;100.00;99392.22;5068392;28;20045;-59
2024/03/13 09:00:22;;;;;;;0.47;0.10;;;;;;;11.44;100.00;99395.31;5060379;28;20025;-60
2024/03/13 09:03:08;;;;;;;1.00;0.30;;;;;;;11.38;100.00;99400.44;5037202;28;20645;-61
2024/03/13 09:05:52;;;;;;;0.93;0.30;;;;;;;11.31;100.00;99414.22;5047956;28;20701;-61
2024/03/13 09:08:22;;;;;;;0.47;0.30;;;;;;;11.25;100.00;99414.97;5047601;28;20045;-62
2024/03/13 09:11:12;;;;;;;0.60;0.20;;;;;;;11.13;100.00;99418.81;5045168;28;20751;-59
2024/03/13 09:13:41;;;;;;;0.73;0.35;;;;;;;11.11;100.00;99412.06;5046534;28;20049;-61
2024/03/13 09:16:12;;;;;;;0.55;0.52;;;;;;;11.07;100.00;99423.09;5047262;28;20041;-60
2024/03/13 09:18:41;;;;;;;0.40;0.30;;;;;;;11.01;100.00;99411.56;5045302;28;20111;-59
2024/03/13 09:21:12;;;;;;;1.95;0.50;;;;;;;10.99;100.00;99429.72;5028831;28;20521;-60
2024/03/13 09:23:39;;;;;;;0.80;0.55;;;;;;;10.95;100.00;99426.94;5047754;28;20319;-60
2024/03/13 09:26:07;;;;;;;1.30;0.73;;;;;;;10.95;100.00;99432.47;5047556;28;20056;-61
2024/03/13 09:28:34;;;;;;;0.52;0.45;;;;;;;10.92;100.00;99440.75;5046767;28;20051;-60
2024/03/13 09:31:02;;;;;;;0.93;0.35;;;;;;;10.89;100.00;99436.75;5047667;28;20049;-60
2024/03/13 09:33:31;;;;;;;1.55;0.40;;;;;;;10.90;100.00;99440.31;5048138;28;20049;-59
2024/03/13 09:36:00;;;;;;;1.30;0.30;;;;;;;10.87;100.00;99432.78;5046947;28;20037;-60
2024/03/13 09:38:28;;;;;;;1.23;0.73;;;;;;;10.82;100.00;99441.41;5047490;28;20481;-60
2024/03/13 09:40:56;;;;;;;0.38;0.22;;;;;;;10.77;100.00;99444.53;5047260;28;20141;-58
2024/03/13 09:43:27;;;;;;;0.20;0.20;;;;;;;10.77;100.00;99444.53;5046906;28;20509;-58
2024/03/13 09:45:55;;;;;;;0.00;0.00;;;;;;;10.74;100.00;99445.28;5047099;28;20037;-58
2024/03/13 09:48:24;;;;;;;0.20;0.10;;;;;;;10.69;100.00;99443.66;5047227;28;20059;-58
2024/03/13 09:50:53;;;;;;;0.40;0.28;;;;;;;10.68;100.00;99452.31;5029012;28;20127;-60
2024/03/13 09:53:23;;;;;;;0.45;0.45;;;;;;;10.65;100.00;99453.88;5044340;28;20040;-59
2024/03/13 09:55:52;;;;;;;0.38;0.28;;;;;;;10.64;100.00;99451.50;5026442;28;20053;-59
2024/03/13 09:58:21;;;;;;;2.47;0.20;;;;;;;10.65;100.00;99453.88;5028774;28;20506;-60
2024/03/13 10:00:53;;;;;;;0.50;0.10;;;;;;;10.69;100.00;99460.25;5030932;28;20383;-59
2024/03/13 10:03:23;;;;;;;0.40;0.30;;;;;;;10.69;100.00;99454.72;5053797;28;20554;-60
2024/03/13 10:06:00;;;;;;;0.15;0.10;;;;;;;10.69;100.00;99462.22;5058111;28;20044;-59
2024/03/13 10:08:28;;;;;;;1.38;0.10;;;;;;;10.70;100.00;99452.72;5047872;28;20049;-59
2024/03/13 10:11:00;;;;;;;0.28;0.10;;;;;;;10.76;100.00;99456.75;5049466;28;20064;-59
2024/03/13 10:13:33;;;;;;;0.80;0.28;;;;;;;10.83;100.00;99457.63;5062460;28;20045;-60
2024/03/13 10:16:02;;;;;;;0.32;0.30;;;;;;;10.85;100.00;99452.53;5049830;28;20044;-59
2024/03/13 10:18:30;;;;;;;0.77;0.35;;;;;;;10.91;100.00;99467.63;5066800;28;20036;-60
2024/03/13 10:21:12;;;;;;;0.20;0.20;;;;;;;10.97;100.00;99454.25;5063229;28;20053;-60
2024/03/13 10:23:47;;;;;;;0.10;0.10;;;;;;;11.02;100.00;99463.00;5045976;28;20457;-60
2024/03/13 10:26:16;;;;;;;0.35;0.20;;;;;;;11.08;100.00;99454.34;5065117;28;20036;-60
2024/03/13 10:28:43;;;;;;;0.40;0.10;;;;;;;11.13;100.00;99457.59;5044754;28;20041;-60
2024/03/13 10:31:14;;;;;;;0.30;0.20;;;;;;;11.15;100.00;99466.31;5058621;28;20056;-60
2024/03/13 10:33:42;;;;;;;0.10;0.10;;;;;;;11.16;100.00;99456.03;5059062;28;20060;-61
2024/03/13 10:36:11;;;;;;;0.47;0.30;;;;;;;11.11;100.00;99473.78;5061909;28;20040;-60
2024/03/13 10:38:41;;;;;;;0.93;0.30;;;;;;;11.09;100.00;99478.13;5053105;28;20690;-60
2024/03/13 10:41:11;;;;;;;0.47;0.40;;;;;;;11.09;100.00;99473.38;5065408;28;20048;-61
2024/03/13 10:43:41;;;;;;;0.25;0.20;;;;;;;11.15;100.00;99465.50;5038311;28;20044;-60
2024/03/13 10:46:11;;;;;;;0.40;0.40;;;;;;;11.20;100.00;99468.72;5050777;28;20056;-60
2024/03/13 10:48:39;;;;;;;1.75;0.50;;;;;;;11.29;100.00;99472.00;5056530;28;20068;-60
2024/03/13 10:51:13;;;;;;;1.02;0.50;;;;;;;11.37;100.00;99478.41;5060996;28;20056;-60
2024/03/13 10:53:45;;;;;;;0.82;0.60;;;;;;;11.38;100.00;99485.53;5050184;28;20049;-60
2024/03/13 10:56:14;;;;;;;0.90;0.90;;;;;;;11.34;100.00;99482.72;5066187;28;20704;-61
2024/03/13 10:58:48;;;;;;;0.93;0.80;;;;;;;11.32;100.00;99492.59;5067768;28;20052;-60
2024/03/13 11:01:16;;;;;;;1.40;1.30;;;;;;;11.28;100.00;99492.56;5060926;28;20053;-60
2024/03/13 11:03:56;;;;;;;1.10;1.10;;;;;;;11.19;100.00;99478.22;5037171;28;20128;-60
2024/03/13 11:06:25;;;;;;;0.98;0.98;;;;;;;11.12;100.00;99488.44;5042945;28;20491;-60
2024/03/13 11:08:52;;;;;;;2.38;1.08;;;;;;;11.12;100.00;99480.91;5047939;28;20060;-60
2024/03/13 11:11:21;;;;;;;1.30;1.13;;;;;;;11.15;100.00;99485.69;5027292;28;20056;-60
2024/03/13 11:13:54;;;;;;;0.95;0.90;;;;;;;11.21;100.00;99483.38;5035652;28;20407;-60
2024/03/13 11:16:23;;;;;;;1.23;1.00;;;;;;;11.32;100.00;99490.63;5023065;28;20045;-60
2024/03/13 11:18:51;;;;;;;0.60;0.60;;;;;;;11.41;100.00;99490.34;5046007;28;20407;-58
2024/03/13 11:21:37;;;;;;;0.70;0.70;;;;;;;11.46;100.00;99495.53;5041572;28;20049;-59
2024/03/13 11:24:07;;;;;;;0.85;0.85;;;;;;;11.52;100.00;99492.00;5021555;28;20049;-56
2024/03/13 11:26:38;;;;;;;0.65;0.65;;;;;;;11.70;100.00;99499.72;5027485;28;20045;-58
2024/03/13 11:29:08;;;;;;;0.55;0.52;;;;;;;11.79;100.00;99494.66;5029442;28;20041;-60
2024/03/13 11:31:36;;;;;;;0.60;0.60;;;;;;;11.89;100.00;99505.03;5046959;28;20060;-60
2024/03/13 11:34:05;;;;;;;1.58;0.70;;;;;;;12.04;100.00;99501.19;5047614;28;20068;-60
2024/03/13 11:36:32;;;;;;;0.68;0.65;;;;;;;12.15;100.00;99513.19;5037445;28;20522;-59
2024/03/13 11:39:00;;;;;;;0.68;0.45;;;;;;;12.23;100.00;99500.94;5044770;28;20045;-59
2024/03/13 11:41:27;;;;;;;0.57;0.57;;;;;;;12.26;100.00;99499.38;5037766;28;20053;-58
2024/03/13 11:43:58;;;;;;;0.80;0.80;;;;;;;12.25;100.00;99497.78;5047441;28;20091;-59
2024/03/13 11:46:43;;;;;;;1.13;0.90;;;;;;;12.20;100.00;99494.16;5013317;28;20037;-57
2024/03/13 11:49:10;;;;;;;1.65;1.20;;;;;;;12.24;100.00;99505.28;5045663;28;20048;-58
2024/03/13 11:51:38;;;;;;;0.50;0.50;;;;;;;12.30;100.00;99502.97;5030266;28;20045;-59
2024/03/13 11:54:12;;;;;;;0.60;0.60;;;;;;;12.44;100.00;99509.41;5039531;28;20502;-60
2024/03/13 11:56:41;;;;;;;0.55;0.50;;;;;;;12.55;100.00;99510.25;5028424;28;20052;-57
2024/03/13 11:59:08;;;;;;;0.70;0.70;;;;;;;12.58;100.00;99509.47;5022185;28;20046;-55